createdAt,value
2018-04-13T00:00:47.521Z,69.90
2018-04-13T00:03:14.976Z,70.00
2018-04-13T00:05:42.434Z,69.80
2018-04-13T00:08:09.896Z,69.80
2018-04-13T00:10:37.357Z,69.80
2018-04-13T00:13:04.813Z,69.90
2018-04-13T00:15:32.340Z,70.10
2018-04-13T00:17:59.986Z,70.00
2018-04-13T00:20:27.489Z,69.90
2018-04-13T00:22:55.025Z,70.00
2018-04-13T00:25:22.761Z,70.00
2018-04-13T00:27:50.244Z,70.10
2018-04-13T00:30:17.698Z,70.10
2018-04-13T00:32:45.466Z,70.20
2018-04-13T00:35:13.228Z,70.20
2018-04-13T00:37:40.995Z,70.30
2018-04-13T00:40:08.756Z,70.30
2018-04-13T00:42:36.213Z,70.30
2018-04-13T00:45:03.691Z,70.20
2018-04-13T00:47:31.303Z,70.30
2018-04-13T00:49:58.892Z,70.50
2018-04-13T00:52:26.352Z,70.50
2018-04-13T00:54:54.078Z,70.50
2018-04-13T00:57:21.576Z,70.40
2018-04-13T00:59:49.033Z,70.50
2018-04-13T01:02:16.490Z,70.50
2018-04-13T01:04:43.942Z,70.40
2018-04-13T01:07:11.558Z,70.50
2018-04-13T01:09:39.161Z,70.50
2018-04-13T01:12:06.628Z,70.50
2018-04-13T01:14:34.087Z,70.40
2018-04-13T01:17:01.765Z,70.30
2018-04-13T01:19:29.296Z,70.40
2018-04-13T01:21:57.060Z,70.40
2018-04-13T01:24:24.524Z,70.30
2018-04-13T01:26:52.273Z,70.30
2018-04-13T01:29:19.922Z,70.40
2018-04-13T01:31:47.400Z,70.30
2018-04-13T01:34:14.921Z,70.20
2018-04-13T01:36:42.372Z,70.20
2018-04-13T01:39:09.829Z,70.30
2018-04-13T01:41:37.284Z,70.40
2018-04-13T01:44:04.777Z,70.40
2018-04-13T01:46:32.545Z,70.40
2018-04-13T01:49:00.197Z,70.50
2018-04-13T01:51:27.677Z,70.50
2018-04-13T01:53:55.429Z,70.60
2018-04-13T01:56:23.004Z,70.60
2018-04-13T01:58:50.457Z,70.70
2018-04-13T02:01:18.204Z,70.60
2018-04-13T02:03:45.847Z,70.50
2018-04-13T02:06:13.341Z,70.30
2018-04-13T02:08:40.885Z,70.40
2018-04-13T02:11:08.525Z,70.20
2018-04-13T02:13:36.009Z,70.10
2018-04-13T02:16:03.473Z,70.20
2018-04-13T02:18:31.025Z,70.00
2018-04-13T02:38:16.038Z,70.10
2018-04-13T02:40:43.588Z,70.20
2018-04-13T02:43:11.318Z,70.10
2018-04-13T02:45:38.935Z,70.10
2018-04-13T02:48:06.800Z,70.20
2018-04-13T02:50:34.369Z,70.30
2018-04-13T02:53:02.001Z,70.40
2018-04-13T02:55:30.314Z,70.30
2018-04-13T02:57:57.882Z,70.30
2018-04-13T03:00:25.395Z,70.10
2018-04-13T03:02:53.012Z,70.00
2018-04-13T03:05:20.551Z,70.00
2018-04-13T03:07:48.862Z,70.20
2018-04-13T03:10:16.478Z,70.10
2018-04-13T03:12:44.082Z,70.20
2018-04-13T03:15:12.512Z,70.40
2018-04-13T03:17:40.037Z,70.30
2018-04-13T03:20:07.573Z,70.20
2018-04-13T03:22:35.202Z,70.20
2018-04-13T03:25:02.825Z,70.30
2018-04-13T03:27:30.377Z,70.20
2018-04-13T03:29:58.702Z,70.40
2018-04-13T03:32:26.270Z,70.40
2018-04-13T03:34:53.799Z,70.40
2018-04-13T03:37:21.297Z,70.40
2018-04-13T03:39:48.814Z,70.50
2018-04-13T03:42:16.422Z,70.40
2018-04-13T03:44:43.892Z,70.40
2018-04-13T03:47:11.454Z,70.20
2018-04-13T03:49:39.199Z,70.20
2018-04-13T03:52:06.700Z,70.20
2018-04-13T03:54:35.015Z,70.30
2018-04-13T03:57:02.656Z,70.30
2018-04-13T03:59:30.293Z,70.40
2018-04-13T04:01:57.821Z,70.50
2018-04-13T04:04:25.583Z,70.40
2018-04-13T04:06:53.097Z,70.50
2018-04-13T04:09:20.634Z,70.40
2018-04-13T04:11:48.321Z,70.40
2018-04-13T04:14:16.104Z,70.40
2018-04-13T04:16:43.639Z,70.20
2018-04-13T04:19:11.232Z,70.20
2018-04-13T04:21:50.488Z,70.40
2018-04-13T04:24:29.764Z,70.40
2018-04-13T04:26:57.568Z,70.40
2018-04-13T04:29:25.044Z,70.50
2018-04-13T04:31:52.750Z,70.90
2018-04-13T04:34:20.307Z,71.00
2018-04-13T04:36:48.731Z,71.10
2018-04-13T04:39:16.270Z,71.30
2018-04-13T04:41:43.769Z,71.60
2018-04-13T04:44:11.307Z,72.10
2018-04-13T04:46:38.790Z,72.30
2018-04-13T04:49:07.102Z,72.10
2018-04-13T04:51:34.849Z,72.10
2018-04-13T04:54:02.434Z,72.40
2018-04-13T04:56:29.917Z,72.60
2018-04-13T04:58:57.420Z,72.70
2018-04-13T05:01:24.932Z,72.70
2018-04-13T05:03:52.489Z,72.70
2018-04-13T05:06:19.985Z,72.60
2018-04-13T05:08:48.305Z,72.90
2018-04-13T05:11:15.842Z,72.90
2018-04-13T05:13:43.385Z,73.00
2018-04-13T05:16:11.036Z,73.00
2018-04-13T05:18:38.799Z,73.20
2018-04-13T05:21:06.544Z,73.40
2018-04-13T05:23:34.139Z,74.10
2018-04-13T05:26:01.777Z,73.50
2018-04-13T05:28:29.481Z,73.50
2018-04-13T05:30:57.189Z,73.50
2018-04-13T05:33:24.682Z,73.70
2018-04-13T05:35:52.225Z,73.80
2018-04-13T05:38:20.507Z,73.90
2018-04-13T05:40:48.210Z,73.90
2018-04-13T05:43:15.736Z,74.00
2018-04-13T05:45:43.410Z,73.90
2018-04-13T05:48:10.927Z,74.10
2018-04-13T05:50:38.469Z,74.10
2018-04-13T05:53:06.231Z,74.00
2018-04-13T05:55:34.106Z,73.80
2018-04-13T05:58:01.614Z,73.90
2018-04-13T06:00:29.151Z,74.10
2018-04-13T06:02:56.834Z,74.20
2018-04-13T06:05:24.353Z,74.20
2018-04-13T06:07:52.181Z,74.20
2018-04-13T06:10:19.716Z,74.20
2018-04-13T06:12:47.299Z,74.30
2018-04-13T06:15:14.893Z,74.20
2018-04-13T06:17:42.399Z,74.00
2018-04-13T06:20:10.084Z,74.20
2018-04-13T06:22:37.856Z,74.60
2018-04-13T06:25:05.413Z,74.70
2018-04-13T06:27:33.050Z,74.50
2018-04-13T06:30:00.546Z,74.40
2018-04-13T06:32:28.141Z,74.40
2018-04-13T06:34:55.640Z,74.60
2018-04-13T06:37:23.142Z,74.70
2018-04-13T06:39:50.737Z,74.70
2018-04-13T06:42:18.380Z,74.70
2018-04-13T06:44:45.937Z,74.60
2018-04-13T06:47:13.437Z,74.60
2018-04-13T06:49:41.106Z,74.50
2018-04-13T06:52:08.640Z,74.50
2018-04-13T06:54:36.115Z,74.60
2018-04-13T06:57:03.633Z,74.50
2018-04-13T06:59:31.147Z,74.50
2018-04-13T07:01:58.674Z,74.30
2018-04-13T07:04:26.204Z,74.50
2018-04-13T07:06:53.766Z,74.80
2018-04-13T07:09:21.315Z,75.00
2018-04-13T07:11:48.828Z,75.10
2018-04-13T07:14:16.519Z,75.20
2018-04-13T07:16:44.124Z,75.00
2018-04-13T07:19:11.692Z,75.30
2018-04-13T07:21:39.207Z,75.20
2018-04-13T07:24:06.712Z,75.20
2018-04-13T07:26:34.233Z,75.20
2018-04-13T07:29:02.494Z,75.20
2018-04-13T07:31:30.067Z,75.00
2018-04-13T07:33:58.366Z,75.10
2018-04-13T07:36:25.902Z,75.20
2018-04-13T07:38:54.186Z,75.30
2018-04-13T07:41:21.767Z,75.30
2018-04-13T07:43:49.298Z,75.40
2018-04-13T07:46:17.044Z,75.20
2018-04-13T07:48:44.401Z,75.30
2018-04-13T07:51:11.956Z,75.20
2018-04-13T07:53:39.418Z,75.00
2018-04-13T07:56:06.967Z,75.00
2018-04-13T07:58:34.482Z,75.00
2018-04-13T08:01:02.422Z,75.10
2018-04-13T08:03:29.767Z,75.00
2018-04-13T08:05:57.353Z,75.00
2018-04-13T08:08:25.038Z,75.00
2018-04-13T08:10:52.573Z,75.00
2018-04-13T08:13:20.121Z,75.00
2018-04-13T08:15:47.627Z,75.00
2018-04-13T08:18:15.312Z,75.00
2018-04-13T08:20:42.863Z,75.00
2018-04-13T08:23:10.375Z,74.80
2018-04-13T08:25:37.954Z,74.80
2018-04-13T08:28:05.760Z,74.90
2018-04-13T08:30:33.235Z,74.90
2018-04-13T08:33:00.778Z,74.80
2018-04-13T08:35:29.080Z,74.30
2018-04-13T08:37:57.396Z,74.20
2018-04-13T08:40:25.047Z,74.10
2018-04-13T08:42:52.580Z,74.20
2018-04-13T08:45:20.191Z,74.10
2018-04-13T08:47:47.696Z,74.30
2018-04-13T08:50:15.362Z,74.20
2018-04-13T08:52:42.880Z,74.20
2018-04-13T08:55:10.386Z,74.40
2018-04-13T08:57:38.146Z,74.30
2018-04-13T09:00:05.679Z,74.30
2018-04-13T09:02:33.214Z,74.00
2018-04-13T09:05:00.720Z,73.90
2018-04-13T09:07:28.442Z,74.00
2018-04-13T09:09:55.989Z,74.00
2018-04-13T09:12:23.523Z,74.10
2018-04-13T09:14:51.113Z,74.10
2018-04-13T09:17:18.719Z,73.90
2018-04-13T09:19:46.185Z,73.60
2018-04-13T09:22:13.765Z,73.70
2018-04-13T09:24:41.276Z,73.60
2018-04-13T09:27:08.818Z,73.50
2018-04-13T09:29:37.137Z,73.40
2018-04-13T09:32:04.629Z,73.40
2018-04-13T09:34:32.159Z,73.50
2018-04-13T09:36:59.683Z,73.40
2018-04-13T09:39:27.338Z,73.10
2018-04-13T09:41:55.036Z,72.80
2018-04-13T09:44:22.574Z,72.70
2018-04-13T09:46:50.199Z,72.60
2018-04-13T09:49:17.721Z,72.60
2018-04-13T09:51:45.254Z,72.50
2018-04-13T09:54:12.777Z,72.40
2018-04-13T09:56:40.286Z,72.40
2018-04-13T09:59:07.820Z,72.40
2018-04-13T10:01:39.907Z,72.70
2018-04-13T10:04:13.462Z,72.70
2018-04-13T10:06:41.155Z,73.00
2018-04-13T10:09:08.718Z,73.20
2018-04-13T10:11:36.238Z,73.00
2018-04-13T10:14:03.766Z,72.80
2018-04-13T10:16:31.300Z,72.50
2018-04-13T10:18:58.835Z,72.30
2018-04-13T10:21:26.329Z,72.40
2018-04-13T10:23:53.869Z,72.50
2018-04-13T10:26:21.383Z,72.70
2018-04-13T10:28:48.925Z,72.80
2018-04-13T10:31:16.432Z,73.10
2018-04-13T10:33:43.967Z,72.90
2018-04-13T10:36:11.566Z,73.00
2018-04-13T10:38:39.860Z,72.80
2018-04-13T10:41:07.441Z,72.80
2018-04-13T10:43:34.959Z,72.50
2018-04-13T10:46:02.438Z,72.40
2018-04-13T10:48:29.999Z,72.50
2018-04-13T10:50:57.478Z,72.30
2018-04-13T10:53:25.022Z,72.40
2018-04-13T10:55:53.350Z,72.20
2018-04-13T10:58:21.028Z,72.20
2018-04-13T11:00:48.531Z,72.20
2018-04-13T11:03:16.052Z,72.10
2018-04-13T11:05:43.621Z,72.40
2018-04-13T11:08:11.167Z,72.60
2018-04-13T11:10:38.803Z,72.80
2018-04-13T11:13:06.300Z,72.20
2018-04-13T11:15:34.059Z,72.00
2018-04-13T11:18:01.593Z,71.80
2018-04-13T11:20:29.123Z,71.40
2018-04-13T11:22:56.626Z,71.20
2018-04-13T11:25:24.171Z,71.00
2018-04-13T11:27:51.687Z,70.80
2018-04-13T11:30:19.413Z,70.90
2018-04-13T11:32:47.273Z,70.70
2018-04-13T11:35:15.058Z,70.50
2018-04-13T11:37:42.799Z,70.50
2018-04-13T11:40:10.300Z,70.40
2018-04-13T11:42:37.822Z,70.40
2018-04-13T11:45:05.467Z,70.10
2018-04-13T11:47:33.782Z,70.00
2018-04-13T11:50:01.466Z,69.90
2018-04-13T11:52:28.978Z,70.10
2018-04-13T11:54:56.606Z,70.20
2018-04-13T11:57:24.146Z,70.30
2018-04-13T11:59:51.879Z,70.20
2018-04-13T12:02:19.422Z,70.10
2018-04-13T12:04:46.957Z,70.30
2018-04-13T12:07:14.481Z,70.10
2018-04-13T12:09:41.990Z,70.20
2018-04-13T12:12:09.503Z,70.20
2018-04-13T12:14:37.069Z,70.10
2018-04-13T12:17:06.226Z,70.10
2018-04-13T12:19:34.167Z,70.00
2018-04-13T12:22:01.836Z,70.10
2018-04-13T12:24:29.318Z,70.10
2018-04-13T12:26:57.046Z,70.10
2018-04-13T12:29:24.558Z,70.10
2018-04-13T12:31:52.099Z,70.00
2018-04-13T12:34:19.598Z,70.30
2018-04-13T12:36:47.074Z,70.30
2018-04-13T12:39:14.596Z,70.30
2018-04-13T12:41:42.133Z,70.50
2018-04-13T12:44:09.964Z,70.50
2018-04-13T12:46:37.661Z,70.70
2018-04-13T12:49:05.377Z,70.90
2018-04-13T12:51:32.856Z,71.10
2018-04-13T12:54:00.438Z,71.30
2018-04-13T12:56:27.972Z,71.30
2018-04-13T12:58:55.451Z,71.20
2018-04-13T13:01:23.034Z,71.50
2018-04-13T13:03:51.059Z,71.70
2018-04-13T13:06:18.702Z,71.90
2018-04-13T13:08:46.257Z,72.10
2018-04-13T13:11:13.779Z,72.00
2018-04-13T13:13:41.352Z,71.80
2018-04-13T13:16:08.871Z,71.80
2018-04-13T13:18:36.557Z,72.40
2018-04-13T13:21:04.070Z,73.00
2018-04-13T13:23:31.916Z,73.00
2018-04-13T13:25:59.547Z,72.70
2018-04-13T13:28:27.067Z,72.60
2018-04-13T13:30:54.575Z,72.70
2018-04-13T13:33:22.309Z,72.60
2018-04-13T13:35:49.834Z,72.30
2018-04-13T13:38:17.414Z,72.60
2018-04-13T13:40:44.939Z,72.70
2018-04-13T13:43:12.511Z,72.60
2018-04-13T13:45:40.064Z,72.60
2018-04-13T13:48:07.591Z,73.30
2018-04-13T13:50:35.115Z,72.50
2018-04-13T13:53:02.732Z,72.40
2018-04-13T13:55:31.026Z,72.20
2018-04-13T13:57:58.566Z,72.20
2018-04-13T14:00:26.114Z,72.20
2018-04-13T14:02:53.646Z,72.00
2018-04-13T14:05:21.157Z,72.00
2018-04-13T14:07:48.686Z,72.00
2018-04-13T14:10:16.245Z,72.00
2018-04-13T14:12:43.732Z,71.90
2018-04-13T14:15:11.246Z,72.00
2018-04-13T14:17:38.773Z,71.80
2018-04-13T14:20:06.270Z,71.80
2018-04-13T14:22:33.779Z,71.80
2018-04-13T14:25:01.283Z,71.40
2018-04-13T14:27:28.777Z,71.40
2018-04-13T14:29:56.288Z,71.30
2018-04-13T14:32:23.867Z,71.20
2018-04-13T14:34:52.273Z,71.20
2018-04-13T14:37:19.860Z,71.20
2018-04-13T14:39:47.358Z,71.10
2018-04-13T14:42:14.966Z,70.80
2018-04-13T14:44:42.484Z,70.90
2018-04-13T14:47:09.999Z,71.00
2018-04-13T14:49:37.466Z,70.90
2018-04-13T14:52:04.979Z,70.80
2018-04-13T14:54:32.797Z,70.90
2018-04-13T14:57:01.114Z,70.50
2018-04-13T14:59:28.650Z,70.40
2018-04-13T15:01:56.239Z,70.60
2018-04-13T15:04:25.286Z,70.50
2018-04-13T15:06:52.845Z,70.70
2018-04-13T15:09:20.468Z,70.60
2018-04-13T15:11:47.999Z,70.80
2018-04-13T15:14:15.549Z,70.80
2018-04-13T15:16:43.885Z,71.00
2018-04-13T15:19:11.482Z,70.90
2018-04-13T15:21:38.996Z,70.70
2018-04-13T15:24:06.561Z,70.90
2018-04-13T15:26:34.095Z,71.00
2018-04-13T15:29:01.622Z,70.90
2018-04-13T15:31:29.234Z,71.10
2018-04-13T15:33:56.823Z,71.10
2018-04-13T15:36:24.361Z,71.10
2018-04-13T15:38:51.935Z,71.30
2018-04-13T15:41:20.294Z,71.60
2018-04-13T15:43:48.293Z,71.20
2018-04-13T15:46:15.923Z,72.20
2018-04-13T15:48:43.448Z,71.60
2018-04-13T15:51:11.078Z,71.60
2018-04-13T15:53:39.409Z,72.60
2018-04-13T15:56:06.985Z,71.70
2018-04-13T15:58:35.320Z,72.90
2018-04-13T16:01:02.858Z,72.20
2018-04-13T16:03:30.404Z,72.00
2018-04-13T16:05:57.954Z,72.00
2018-04-13T16:08:26.315Z,72.20
2018-04-13T16:10:53.881Z,71.90
2018-04-13T16:13:21.468Z,71.90
2018-04-13T16:15:48.974Z,72.00
2018-04-13T16:18:16.481Z,71.80
2018-04-13T16:20:44.017Z,71.80
2018-04-13T16:23:11.573Z,72.00
2018-04-13T16:25:39.107Z,72.00
2018-04-13T16:28:06.934Z,72.10
2018-04-13T16:30:35.182Z,72.30
2018-04-13T16:33:02.951Z,72.30
2018-04-13T16:35:30.500Z,72.40
2018-04-13T16:37:58.016Z,72.30
2018-04-13T16:40:26.364Z,72.40
2018-04-13T16:42:53.917Z,72.20
2018-04-13T16:45:22.243Z,72.20
2018-04-13T16:47:49.760Z,72.20
2018-04-13T16:50:17.299Z,72.30
2018-04-13T16:52:44.849Z,72.20
2018-04-13T16:55:12.383Z,72.30
2018-04-13T16:57:39.953Z,72.40
2018-04-13T17:00:07.491Z,72.30
2018-04-13T17:02:35.088Z,72.20
2018-04-13T17:05:02.689Z,72.20
2018-04-13T17:07:30.318Z,72.40
2018-04-13T17:09:57.853Z,72.40
2018-04-13T17:12:25.471Z,72.20
2018-04-13T17:14:53.074Z,72.20
2018-04-13T17:17:20.600Z,72.10
2018-04-13T17:19:48.115Z,72.20
2018-04-13T17:22:15.669Z,72.20
2018-04-13T17:24:43.250Z,72.10
2018-04-13T17:27:10.757Z,72.10
2018-04-13T17:29:38.264Z,72.30
2018-04-13T17:32:06.700Z,71.90
2018-04-13T17:34:34.239Z,71.90
2018-04-13T17:37:01.748Z,71.80
2018-04-13T17:39:29.293Z,71.90
2018-04-13T17:41:56.806Z,71.70
2018-04-13T17:44:24.379Z,71.50
2018-04-13T17:46:51.873Z,71.50
2018-04-13T17:49:19.369Z,71.50
2018-04-13T17:51:46.901Z,71.40
2018-04-13T17:54:15.170Z,71.60
2018-04-13T17:56:42.725Z,71.50
2018-04-13T17:59:10.231Z,71.50
2018-04-13T18:01:37.759Z,71.40
2018-04-13T18:04:05.908Z,71.40
2018-04-13T18:06:33.400Z,71.30
2018-04-13T18:09:00.902Z,71.30
2018-04-13T18:11:28.425Z,71.30
2018-04-13T18:13:55.951Z,71.30
2018-04-13T18:16:23.482Z,71.40
2018-04-13T18:18:50.977Z,71.30
2018-04-13T18:21:18.523Z,71.50
2018-04-13T18:23:46.018Z,71.40
2018-04-13T18:26:13.516Z,71.30
2018-04-13T18:28:41.012Z,71.30
2018-04-13T18:31:08.536Z,71.40
2018-04-13T18:33:36.060Z,71.40
2018-04-13T18:36:03.579Z,71.40
2018-04-13T18:38:31.897Z,71.70
2018-04-13T18:40:59.407Z,71.40
2018-04-13T18:43:26.984Z,71.40
2018-04-13T18:45:54.871Z,71.90
2018-04-13T18:48:22.431Z,71.50
2018-04-13T18:50:50.052Z,71.50
2018-04-13T18:53:17.694Z,71.10
2018-04-13T18:55:45.302Z,71.10
2018-04-13T18:58:12.964Z,71.30
2018-04-13T19:00:40.403Z,71.40
2018-04-13T19:03:07.888Z,71.60
2018-04-13T19:05:35.358Z,71.60
2018-04-13T19:08:02.942Z,71.60
2018-04-13T19:10:30.443Z,71.50
2018-04-13T19:12:58.714Z,71.50
2018-04-13T19:15:26.218Z,71.40
2018-04-13T19:17:54.521Z,71.50
2018-04-13T19:20:21.996Z,71.40
2018-04-13T19:22:49.909Z,71.40
2018-04-13T19:25:17.413Z,71.30
2018-04-13T19:27:44.866Z,71.30
2018-04-13T19:30:12.357Z,71.20
2018-04-13T19:32:39.830Z,71.30
2018-04-13T19:35:07.306Z,71.20
2018-04-13T19:37:34.811Z,71.30
2018-04-13T19:40:02.621Z,71.40
2018-04-13T19:42:30.099Z,71.40
2018-04-13T19:44:57.575Z,71.40
2018-04-13T19:47:25.054Z,71.40
2018-04-13T19:49:53.315Z,71.30
2018-04-13T19:52:20.805Z,71.40
2018-04-13T19:54:48.333Z,71.40
2018-04-13T19:57:15.802Z,71.50
2018-04-13T19:59:43.268Z,71.60
2018-04-13T20:02:11.540Z,71.70
2018-04-13T20:04:39.016Z,71.70
2018-04-13T20:07:06.496Z,71.80
2018-04-13T20:09:33.975Z,71.90
2018-04-13T20:12:01.465Z,71.90
2018-04-13T20:14:29.692Z,72.00
2018-04-13T20:16:57.166Z,72.00
2018-04-13T20:19:24.790Z,72.00
2018-04-13T20:21:52.381Z,72.00
2018-04-13T20:24:19.853Z,72.00
2018-04-13T20:26:48.835Z,72.10
2018-04-13T20:29:16.306Z,72.00
2018-04-13T20:31:43.797Z,72.00
2018-04-13T20:34:11.276Z,71.90
2018-04-13T20:36:38.850Z,71.80
2018-04-13T20:39:07.039Z,71.80
2018-04-13T20:41:34.520Z,71.70
2018-04-13T20:44:02.021Z,71.80
2018-04-13T20:46:29.546Z,71.60
2018-04-13T20:48:57.782Z,71.80
2018-04-13T20:51:25.268Z,71.80
2018-04-13T20:53:52.734Z,71.90
2018-04-13T20:56:20.539Z,71.90
2018-04-13T20:58:48.015Z,72.00
2018-04-13T21:01:15.501Z,72.00
2018-04-13T21:03:42.983Z,71.90
2018-04-13T21:06:11.240Z,72.00
2018-04-13T21:08:38.735Z,72.00
2018-04-13T21:11:06.204Z,72.00
2018-04-13T21:13:33.759Z,72.10
2018-04-13T21:16:01.237Z,72.20
2018-04-13T21:18:28.977Z,72.10
2018-04-13T21:20:56.475Z,72.20
2018-04-13T21:23:23.961Z,72.10
2018-04-13T21:25:51.483Z,72.20
2018-04-13T21:28:18.978Z,72.30
2018-04-13T21:30:46.467Z,72.60
2018-04-13T21:33:13.931Z,72.60
2018-04-13T21:35:41.464Z,72.60
2018-04-13T21:38:09.714Z,72.80
2018-04-13T21:40:38.215Z,72.80
2018-04-13T21:43:06.455Z,72.90
2018-04-13T21:45:33.945Z,72.90
2018-04-13T21:48:01.427Z,72.80
2018-04-13T21:50:28.933Z,72.90
2018-04-13T21:52:56.402Z,73.00
2018-04-13T21:55:23.898Z,73.00
2018-04-13T21:57:51.491Z,73.20
2018-04-13T22:00:18.977Z,73.30
2018-04-13T22:02:46.470Z,73.50
2018-04-13T22:05:14.814Z,73.50
2018-04-13T22:07:42.470Z,73.60
2018-04-13T22:10:10.026Z,73.80
2018-04-13T22:12:49.394Z,74.10
2018-04-13T22:15:17.649Z,74.10
2018-04-13T22:17:45.106Z,74.30
2018-04-13T22:20:12.755Z,75.00
2018-04-13T22:22:40.398Z,74.60
2018-04-13T22:25:07.960Z,74.80
2018-04-13T22:27:35.433Z,74.60
2018-04-13T22:30:02.892Z,74.60
2018-04-13T22:32:30.546Z,74.90
2018-04-13T22:34:58.114Z,74.90
2018-04-13T22:37:25.763Z,74.80
2018-04-13T22:39:53.226Z,74.60
2018-04-13T22:42:20.796Z,74.60
2018-04-13T22:44:48.250Z,74.50
2018-04-13T22:47:16.006Z,74.40
2018-04-13T22:49:43.474Z,74.30
2018-04-13T22:52:11.122Z,74.20
2018-04-13T22:54:38.595Z,74.10
2018-04-13T22:57:06.969Z,73.80
2018-04-13T22:59:34.446Z,73.80
2018-04-13T23:02:01.907Z,74.10
2018-04-13T23:04:29.434Z,74.30
2018-04-13T23:06:57.075Z,74.30
2018-04-13T23:09:24.553Z,74.40
2018-04-13T23:11:53.039Z,74.50
2018-04-13T23:14:20.506Z,74.50
2018-04-13T23:16:47.965Z,74.40
2018-04-13T23:19:15.439Z,74.30
2018-04-13T23:21:43.070Z,74.40
2018-04-13T23:24:10.543Z,74.50
2018-04-13T23:26:38.002Z,74.40
2018-04-13T23:29:05.474Z,74.40
2018-04-13T23:31:32.949Z,74.30
2018-04-13T23:34:00.555Z,74.30
2018-04-13T23:36:28.218Z,74.50
2018-04-13T23:38:55.875Z,74.60
2018-04-13T23:41:23.337Z,74.80
2018-04-13T23:43:50.897Z,74.80
2018-04-13T23:46:18.661Z,74.80
2018-04-13T23:48:46.302Z,75.00
2018-04-13T23:51:13.886Z,75.00
2018-04-13T23:53:41.650Z,75.00
2018-04-13T23:56:09.405Z,75.00
2018-04-13T23:58:37.055Z,75.00
